createdAt,value
2018-12-24T00:00:42.593Z,96677.27
2018-12-24T00:03:31.355Z,96672.38
2018-12-24T00:06:01.155Z,96667.38
2018-12-24T00:08:30.970Z,96658.03
2018-12-24T00:11:19.922Z,96649.88
2018-12-24T00:14:08.887Z,96648.02
2018-12-24T00:16:38.696Z,96634.22
2018-12-24T00:19:27.739Z,96640.67
2018-12-24T00:21:57.535Z,96621.77
2018-12-24T00:24:27.348Z,96622.77
2018-12-24T00:26:57.144Z,96608.29
2018-12-24T00:29:26.947Z,96605.36
2018-12-24T00:31:56.760Z,96613.31
2018-12-24T00:34:26.560Z,96602.20
2018-12-24T00:36:56.366Z,96601.64
2018-12-24T00:39:26.160Z,96614.42
2018-12-24T00:42:15.987Z,96611.48
2018-12-24T00:44:46.645Z,96605.18
2018-12-24T00:47:16.464Z,96587.38
2018-12-24T00:49:46.272Z,96577.80
2018-12-24T00:52:16.085Z,96599.86
2018-12-24T00:54:45.912Z,96591.88
2018-12-24T00:57:15.727Z,96580.17
2018-12-24T00:59:45.550Z,96568.52
2018-12-24T01:02:15.351Z,96588.25
2018-12-24T01:04:45.164Z,96587.52
2018-12-24T01:07:14.975Z,96579.16
2018-12-24T01:09:44.781Z,96589.31
2018-12-24T01:12:33.813Z,96589.21
2018-12-24T01:15:22.910Z,96583.89
2018-12-24T01:17:52.720Z,96577.75
2018-12-24T01:20:22.537Z,96590.01
2018-12-24T01:22:52.349Z,96578.64
2018-12-24T01:25:22.170Z,96590.54
2018-12-24T01:27:51.980Z,96568.86
2018-12-24T01:30:21.800Z,96579.45
2018-12-24T01:32:51.597Z,96568.31
2018-12-24T01:35:21.407Z,96567.21
2018-12-24T01:37:51.210Z,96559.72
2018-12-24T01:40:21.018Z,96559.25
2018-12-24T01:45:39.668Z,96547.25
2018-12-24T01:48:28.704Z,96550.41
2018-12-24T01:51:17.741Z,96548.87
2018-12-24T01:53:47.550Z,96548.05
2018-12-24T01:56:17.359Z,96540.64
2018-12-24T01:58:47.157Z,96539.00
2018-12-24T02:01:16.969Z,96534.85
2018-12-24T02:03:46.764Z,96524.59
2018-12-24T02:06:16.580Z,96518.67
2018-12-24T02:08:46.399Z,96533.91
2018-12-24T02:11:16.197Z,96528.71
2018-12-24T02:19:39.213Z,96525.26
2018-12-24T02:22:12.895Z,96525.07
2018-12-24T02:24:40.541Z,96530.59
2018-12-24T02:27:29.569Z,96525.84
2018-12-24T02:30:18.622Z,96536.64
2018-12-24T02:32:48.428Z,96563.46
2018-12-24T02:35:18.222Z,96705.59
2018-12-24T02:37:48.035Z,96720.48
2018-12-24T02:40:17.826Z,96732.66
2018-12-24T02:42:52.405Z,96734.46
2018-12-24T02:45:19.217Z,96714.18
2018-12-24T02:47:49.024Z,96712.38
2018-12-24T02:50:18.815Z,96708.57
2018-12-24T02:52:48.617Z,96718.60
2018-12-24T02:55:18.419Z,96723.64
2018-12-24T02:57:48.223Z,96717.08
2018-12-24T03:00:18.015Z,96727.94
2018-12-24T03:02:47.840Z,96726.57
2018-12-24T03:05:36.934Z,96732.44
2018-12-24T03:08:06.663Z,96744.14
2018-12-24T03:10:36.580Z,96757.76
2018-12-24T03:13:27.201Z,96760.03
2018-12-24T03:15:57.004Z,96775.58
2018-12-24T03:18:26.826Z,96779.75
2018-12-24T03:20:56.638Z,96790.03
2018-12-24T03:23:26.457Z,96794.11
2018-12-24T03:25:56.251Z,96784.69
2018-12-24T03:28:26.057Z,96790.78
2018-12-24T03:31:15.008Z,96783.38
2018-12-24T03:33:44.826Z,96808.47
2018-12-24T03:36:14.618Z,96813.02
2018-12-24T03:41:20.124Z,96824.50
2018-12-24T03:43:49.961Z,96827.73
2018-12-24T03:46:19.781Z,96827.38
2018-12-24T03:48:49.626Z,96823.44
2018-12-24T03:51:19.498Z,96833.95
2018-12-24T03:53:49.450Z,96843.14
2018-12-24T03:56:19.269Z,96848.17
2018-12-24T03:58:49.096Z,96859.17
2018-12-24T04:01:18.910Z,96867.30
2018-12-24T04:03:48.829Z,96890.83
2018-12-24T04:06:18.775Z,96912.80
2018-12-24T04:08:48.678Z,96928.34
2018-12-24T04:11:18.497Z,96945.06
2018-12-24T04:13:48.326Z,96951.02
2018-12-24T04:16:18.164Z,96957.36
2018-12-24T04:18:48.119Z,96969.31
2018-12-24T04:21:17.910Z,96971.35
2018-12-24T04:23:47.734Z,96976.48
2018-12-24T04:26:17.572Z,96968.84
2018-12-24T04:28:47.467Z,96959.17
2018-12-24T04:31:17.292Z,96959.78
2018-12-24T04:33:47.114Z,96974.58
2018-12-24T04:36:16.928Z,96994.89
2018-12-24T04:38:46.853Z,97028.68
2018-12-24T04:41:16.679Z,97040.50
2018-12-24T04:43:46.572Z,97067.25
2018-12-24T04:46:16.418Z,97079.42
2018-12-24T04:48:46.247Z,97093.64
2018-12-24T04:51:17.020Z,97092.20
2018-12-24T04:53:46.981Z,97100.80
2018-12-24T04:56:16.799Z,97115.97
2018-12-24T04:58:47.199Z,97108.92
2018-12-24T05:01:17.011Z,97116.56
2018-12-24T05:03:46.836Z,97132.69
2018-12-24T05:06:16.660Z,97140.67
2018-12-24T05:08:46.515Z,97150.23
2018-12-24T05:11:16.354Z,97161.09
2018-12-24T05:13:46.348Z,97181.74
2018-12-24T05:16:16.180Z,97179.48
2018-12-24T05:18:46.033Z,97188.42
2018-12-24T05:21:15.871Z,97194.39
2018-12-24T05:23:45.680Z,97212.30
2018-12-24T05:26:15.514Z,97225.79
2018-12-24T05:28:45.355Z,97239.88
2018-12-24T05:31:15.164Z,97249.54
2018-12-24T05:33:44.987Z,97252.53
2018-12-24T05:36:14.807Z,97266.61
2018-12-24T05:38:44.645Z,97281.64
2018-12-24T05:41:14.487Z,97295.02
2018-12-24T05:43:49.379Z,97299.30
2018-12-24T05:46:15.899Z,97314.81
2018-12-24T05:48:45.752Z,97327.11
2018-12-24T05:51:15.571Z,97339.87
2018-12-24T05:53:45.396Z,97345.23
2018-12-24T05:56:15.252Z,97354.42
2018-12-24T05:58:45.124Z,97363.61
2018-12-24T06:01:14.978Z,97385.69
2018-12-24T06:03:44.813Z,97379.37
2018-12-24T06:06:14.631Z,97394.98
2018-12-24T06:08:44.445Z,97405.84
2018-12-24T06:11:14.316Z,97411.21
2018-12-24T06:13:44.290Z,97417.30
2018-12-24T06:16:14.161Z,97428.86
2018-12-24T06:18:44.008Z,97434.48
2018-12-24T06:21:13.837Z,97438.05
2018-12-24T06:23:43.700Z,97455.13
2018-12-24T06:26:13.691Z,97449.17
2018-12-24T06:28:43.668Z,97466.45
2018-12-24T06:31:13.613Z,97482.31
2018-12-24T06:33:43.514Z,97497.96
2018-12-24T06:36:13.482Z,97511.45
2018-12-24T06:38:43.399Z,97524.80
2018-12-24T06:41:13.260Z,97537.92
2018-12-24T06:43:43.407Z,97535.52
2018-12-24T06:46:13.318Z,97546.74
2018-12-24T06:48:43.194Z,97551.62
2018-12-24T06:51:13.417Z,97562.70
2018-12-24T06:53:43.386Z,97579.84
2018-12-24T06:56:13.210Z,97583.78
2018-12-24T06:58:43.038Z,97592.13
2018-12-24T07:01:12.910Z,97607.70
2018-12-24T07:03:42.784Z,97613.97
2018-12-24T07:06:12.669Z,97610.51
2018-12-24T07:08:42.590Z,97626.62
2018-12-24T07:11:12.491Z,97619.98
2018-12-24T07:13:42.328Z,97627.31
2018-12-24T07:16:12.156Z,97628.72
2018-12-24T07:18:42.184Z,97640.91
2018-12-24T07:21:12.101Z,97644.58
2018-12-24T07:23:42.067Z,97658.70
2018-12-24T07:26:11.889Z,97666.31
2018-12-24T07:28:41.733Z,97668.00
2018-12-24T07:31:11.587Z,97671.20
2018-12-24T07:33:41.444Z,97672.98
2018-12-24T07:36:11.274Z,97694.28
2018-12-24T07:38:41.291Z,97692.23
2018-12-24T07:41:11.135Z,97709.20
2018-12-24T07:43:41.021Z,97711.81
2018-12-24T07:46:11.606Z,97723.36
2018-12-24T07:48:41.446Z,97727.94
2018-12-24T07:51:11.309Z,97729.75
2018-12-24T07:53:41.230Z,97747.66
2018-12-24T07:56:12.258Z,97753.27
2018-12-24T07:58:42.228Z,97769.19
2018-12-24T08:01:12.101Z,97770.88
2018-12-24T08:03:42.094Z,97786.18
2018-12-24T08:06:12.281Z,97780.69
2018-12-24T08:08:42.607Z,97787.72
2018-12-24T08:11:13.373Z,97791.63
2018-12-24T08:13:43.413Z,97810.57
2018-12-24T08:16:13.224Z,97822.66
2018-12-24T08:18:43.038Z,97834.36
2018-12-24T08:21:13.112Z,97842.33
2018-12-24T08:23:43.200Z,97850.11
2018-12-24T08:26:13.086Z,97855.83
2018-12-24T08:28:42.967Z,97854.32
2018-12-24T08:31:12.897Z,97866.50
2018-12-24T08:33:42.876Z,97868.66
2018-12-24T08:36:12.794Z,97869.13
2018-12-24T08:39:15.228Z,97868.09
2018-12-24T08:41:45.280Z,97875.49
2018-12-24T08:44:15.219Z,97885.42
2018-12-24T08:46:45.219Z,97891.98
2018-12-24T08:49:15.013Z,97896.86
2018-12-24T08:51:44.899Z,97903.16
2018-12-24T08:54:15.204Z,97913.18
2018-12-24T08:56:45.219Z,97919.38
2018-12-24T08:59:15.316Z,97931.18
2018-12-24T09:01:45.138Z,97926.50
2018-12-24T09:04:14.980Z,97934.27
2018-12-24T09:06:44.882Z,97947.40
2018-12-24T09:09:14.754Z,97954.53
2018-12-24T09:11:44.569Z,97949.65
2018-12-24T09:14:14.562Z,97963.62
2018-12-24T09:16:44.364Z,97963.80
2018-12-24T09:19:14.242Z,97963.06
2018-12-24T09:21:44.064Z,97974.03
2018-12-24T09:24:13.926Z,97976.73
2018-12-24T09:26:43.906Z,97978.80
2018-12-24T09:29:13.774Z,97985.27
2018-12-24T09:31:43.598Z,97988.35
2018-12-24T09:34:13.458Z,98000.72
2018-12-24T09:36:43.350Z,98004.50
2018-12-24T09:40:11.203Z,98005.25
2018-12-24T09:42:40.642Z,98013.58
2018-12-24T09:45:10.114Z,98014.70
2018-12-24T09:47:39.563Z,98023.05
2018-12-24T09:50:08.989Z,98027.83
2018-12-24T09:52:38.463Z,98026.05
2018-12-24T09:55:07.928Z,98034.30
2018-12-24T09:57:37.321Z,98037.20
2018-12-24T10:00:08.383Z,98032.98
2018-12-24T10:02:42.683Z,98043.20
2018-12-24T10:05:13.628Z,98038.23
2018-12-24T10:08:02.341Z,98040.48
2018-12-24T10:10:31.955Z,98046.29
2018-12-24T10:13:20.556Z,98045.17
2018-12-24T10:15:49.945Z,98047.55
2018-12-24T10:18:19.425Z,98043.98
2018-12-24T10:20:48.840Z,98048.77
2018-12-24T10:23:37.548Z,98048.39
2018-12-24T10:26:26.289Z,98052.70
2018-12-24T10:28:55.668Z,98057.17
2018-12-24T10:31:25.069Z,98068.23
2018-12-24T10:37:02.272Z,98085.39
2018-12-24T10:39:31.719Z,98084.64
2018-12-24T10:42:01.202Z,98090.36
2018-12-24T10:44:30.589Z,98094.48
2018-12-24T10:46:59.976Z,98087.55
2018-12-24T10:49:29.359Z,98099.26
2018-12-24T10:51:58.747Z,98107.78
2018-12-24T10:54:47.508Z,98093.81
2018-12-24T10:57:36.135Z,98097.77
2018-12-24T11:00:07.044Z,98099.17
2018-12-24T11:06:10.081Z,98094.95
2018-12-24T11:08:39.513Z,98103.89
2018-12-24T11:11:09.061Z,98099.48
2018-12-24T11:13:39.607Z,98103.11
2018-12-24T11:16:09.564Z,98110.98
2018-12-24T11:18:38.957Z,98113.23
2018-12-24T11:21:08.421Z,98111.73
2018-12-24T11:26:33.493Z,98115.02
2018-12-24T11:29:22.144Z,98106.48
2018-12-24T11:31:51.572Z,98108.92
2018-12-24T11:34:20.950Z,98117.73
2018-12-24T11:36:50.356Z,98111.64
2018-12-24T11:39:19.926Z,98106.90
2018-12-24T11:41:49.355Z,98107.45
2018-12-24T11:44:18.742Z,98112.30
2018-12-24T11:46:48.133Z,98125.75
2018-12-24T11:49:17.522Z,98116.46
2018-12-24T11:51:46.901Z,98126.68
2018-12-24T11:54:35.348Z,98136.02
2018-12-24T11:57:04.726Z,98141.03
2018-12-24T11:59:34.108Z,98135.94
2018-12-24T12:02:09.915Z,98139.78
2018-12-24T12:04:34.602Z,98146.66
2018-12-24T12:07:04.202Z,98146.91
2018-12-24T12:09:33.609Z,98142.32
2018-12-24T12:12:22.322Z,98150.02
2018-12-24T12:14:51.720Z,98152.08
2018-12-24T12:17:41.985Z,98171.02
2018-12-24T12:20:11.376Z,98160.61
2018-12-24T12:22:40.774Z,98170.06
2018-12-24T12:25:29.492Z,98175.86
2018-12-24T12:27:58.879Z,98173.88
2018-12-24T12:30:28.267Z,98182.80
2018-12-24T12:32:57.697Z,98185.05
2018-12-24T12:35:27.130Z,98182.05
2018-12-24T12:37:56.510Z,98188.23
2018-12-24T12:40:25.919Z,98189.36
2018-12-24T12:42:55.304Z,98183.34
2018-12-24T12:45:25.056Z,98181.29
2018-12-24T12:47:54.442Z,98193.84
2018-12-24T12:50:23.847Z,98188.16
2018-12-24T12:52:53.255Z,98184.77
2018-12-24T12:55:22.643Z,98193.16
2018-12-24T13:00:40.543Z,98204.69
2018-12-24T13:03:09.930Z,98214.25
2018-12-24T13:05:39.320Z,98214.72
2018-12-24T13:08:08.709Z,98218.77
2018-12-24T13:10:38.111Z,98222.22
2018-12-24T13:13:07.500Z,98225.06
2018-12-24T13:15:37.548Z,98228.53
2018-12-24T13:18:08.121Z,98230.88
2018-12-24T13:20:37.512Z,98230.03
2018-12-24T13:23:06.891Z,98236.02
2018-12-24T13:25:56.915Z,98241.83
2018-12-24T13:28:26.284Z,98244.69
2018-12-24T13:31:40.551Z,98252.56
2018-12-24T13:34:10.195Z,98247.78
2018-12-24T13:36:39.618Z,98262.22
2018-12-24T13:39:09.026Z,98260.44
2018-12-24T13:41:38.474Z,98257.61
2018-12-24T13:47:40.384Z,98266.13
2018-12-24T13:50:09.774Z,98267.07
2018-12-24T13:52:39.166Z,98279.73
2018-12-24T13:55:08.646Z,98280.55
2018-12-24T14:00:47.172Z,98290.98
2018-12-24T14:03:16.827Z,98291.74
2018-12-24T14:05:46.164Z,98288.36
2018-12-24T14:08:15.552Z,98293.05
2018-12-24T14:10:45.022Z,98296.53
2018-12-24T14:13:14.397Z,98295.59
2018-12-24T14:15:43.792Z,98301.78
2018-12-24T14:18:13.173Z,98301.52
2018-12-24T14:20:42.559Z,98304.90
2018-12-24T14:23:12.106Z,98301.98
2018-12-24T14:25:41.538Z,98311.25
2018-12-24T14:28:10.926Z,98304.87
2018-12-24T14:30:40.347Z,98316.59
2018-12-24T14:33:09.725Z,98313.80
2018-12-24T14:35:39.113Z,98320.80
2018-12-24T14:38:08.479Z,98324.77
2018-12-24T14:40:37.868Z,98331.00
2018-12-24T14:46:15.004Z,98333.75
2018-12-24T14:48:44.388Z,98346.11
2018-12-24T14:51:13.780Z,98343.84
2018-12-24T14:53:43.177Z,98358.27
2018-12-24T14:56:12.563Z,98359.12
2018-12-24T14:58:41.966Z,98363.61
2018-12-24T15:01:11.362Z,98373.94
2018-12-24T15:03:40.787Z,98374.56
2018-12-24T15:06:10.196Z,98388.13
2018-12-24T15:08:39.581Z,98387.29
2018-12-24T15:11:08.975Z,98383.73
2018-12-24T15:13:38.369Z,98380.72
2018-12-24T15:16:07.754Z,98382.61
2018-12-24T15:18:37.161Z,98384.27
2018-12-24T15:21:06.552Z,98393.07
2018-12-24T15:23:35.928Z,98386.77
2018-12-24T15:26:05.419Z,98391.97
2018-12-24T15:28:34.806Z,98390.74
2018-12-24T15:31:23.523Z,98403.78
2018-12-24T15:33:52.956Z,98401.92
2018-12-24T15:36:22.342Z,98421.17
2018-12-24T15:38:51.713Z,98425.88
2018-12-24T15:41:21.115Z,98429.43
2018-12-24T15:43:50.499Z,98439.25
2018-12-24T15:46:19.893Z,98435.99
2018-12-24T15:48:49.286Z,98440.02
2018-12-24T15:51:18.686Z,98445.94
2018-12-24T15:53:48.072Z,98441.79
2018-12-24T15:56:17.459Z,98448.52
2018-12-24T15:58:46.831Z,98450.64
2018-12-24T16:01:16.232Z,98453.13
2018-12-24T16:03:45.626Z,98456.17
2018-12-24T16:06:35.968Z,98461.58
2018-12-24T16:09:07.208Z,98465.68
2018-12-24T16:11:36.606Z,98463.22
2018-12-24T16:14:05.945Z,98454.83
2018-12-24T16:16:35.334Z,98471.27
2018-12-24T16:19:23.727Z,98471.73
2018-12-24T16:21:53.138Z,98480.88
2018-12-24T16:24:22.585Z,98487.36
2018-12-24T16:26:52.142Z,98488.45
2018-12-24T16:29:21.642Z,98495.31
2018-12-24T16:31:51.069Z,98487.14
2018-12-24T16:34:20.508Z,98484.90
2018-12-24T16:36:49.926Z,98492.08
2018-12-24T16:39:19.370Z,98493.69
2018-12-24T16:41:48.811Z,98497.32
2018-12-24T16:44:18.241Z,98503.34
2018-12-24T16:46:47.674Z,98502.25
2018-12-24T16:49:17.108Z,98507.27
2018-12-24T16:51:46.524Z,98504.42
2018-12-24T16:54:16.023Z,98516.38
2018-12-24T16:56:45.457Z,98510.44
2018-12-24T16:59:14.896Z,98517.69
2018-12-24T17:01:44.414Z,98515.45
2018-12-24T17:04:33.087Z,98525.33
2018-12-24T17:07:02.656Z,98525.09
2018-12-24T17:12:59.167Z,98525.94
2018-12-24T17:15:28.590Z,98532.11
2018-12-24T17:18:17.384Z,98529.52
2018-12-24T17:20:46.871Z,98537.58
2018-12-24T17:23:16.365Z,98537.14
2018-12-24T17:26:05.077Z,98526.03
2018-12-24T17:28:34.481Z,98533.42
2018-12-24T17:31:03.922Z,98530.66
2018-12-24T17:33:33.336Z,98527.64
2018-12-24T17:36:02.910Z,98526.88
2018-12-24T17:38:32.363Z,98525.87
2018-12-24T17:41:01.782Z,98533.45
2018-12-24T17:43:31.230Z,98531.67
2018-12-24T17:49:08.786Z,98545.45
2018-12-24T17:51:38.360Z,98547.38
2018-12-24T17:56:42.660Z,98545.65
2018-12-24T17:59:12.089Z,98549.08
2018-12-24T18:04:31.623Z,98556.10
2018-12-24T18:07:01.037Z,98560.19
2018-12-24T18:09:30.487Z,98558.49
2018-12-24T18:11:59.933Z,98560.19
2018-12-24T18:14:29.378Z,98562.04
2018-12-24T18:16:58.816Z,98566.82
2018-12-24T18:19:47.546Z,98569.36
2018-12-24T18:25:10.980Z,98576.70
2018-12-24T18:27:40.422Z,98577.93
2018-12-24T18:30:30.308Z,98583.02
2018-12-24T18:32:59.726Z,98586.48
2018-12-24T18:35:29.152Z,98589.27
2018-12-24T18:37:58.614Z,98593.51
2018-12-24T18:40:28.081Z,98594.34
2018-12-24T18:43:16.919Z,98585.71
2018-12-24T18:46:05.449Z,98587.87
2018-12-24T18:51:25.006Z,98590.41
2018-12-24T18:53:54.468Z,98581.38
2018-12-24T18:56:43.232Z,98592.95
2018-12-24T18:59:12.690Z,98594.34
2018-12-24T19:01:42.260Z,98597.34
2018-12-24T19:04:31.756Z,98599.66
2018-12-24T19:07:01.276Z,98608.50
2018-12-24T19:09:30.682Z,98593.00
2018-12-24T19:12:19.351Z,98589.23
2018-12-24T19:14:48.778Z,98586.30
2018-12-24T19:17:18.246Z,98584.23
2018-12-24T19:22:43.225Z,98580.83
2018-12-24T19:25:12.649Z,98602.27
2018-12-24T19:27:42.379Z,98626.07
2018-12-24T19:30:11.792Z,98634.78
2018-12-24T19:36:03.832Z,98635.00
2018-12-24T19:38:33.257Z,98632.23
2018-12-24T19:41:22.013Z,98628.23
2018-12-24T19:43:51.428Z,98639.95
2018-12-24T19:46:40.187Z,98649.73
2018-12-24T19:49:09.641Z,98649.27
2018-12-24T19:51:58.415Z,98665.28
2018-12-24T19:54:27.859Z,98661.36
2018-12-24T19:56:57.342Z,98660.55
2018-12-24T19:59:26.752Z,98660.41
2018-12-24T20:01:56.190Z,98670.81
2018-12-24T20:04:25.949Z,98666.88
2018-12-24T20:06:55.366Z,98665.47
2018-12-24T20:09:44.201Z,98668.02
2018-12-24T20:12:13.670Z,98668.16
2018-12-24T20:14:43.108Z,98668.80
2018-12-24T20:17:58.181Z,98671.41
2018-12-24T20:20:23.435Z,98670.03
2018-12-24T20:22:52.895Z,98680.88
2018-12-24T20:25:22.330Z,98687.67
2018-12-24T20:28:11.106Z,98692.20
2018-12-24T20:30:59.876Z,98703.84
2018-12-24T20:33:29.299Z,98700.70
2018-12-24T20:36:18.130Z,98701.43
2018-12-24T20:38:47.562Z,98705.75
2018-12-24T20:41:16.992Z,98704.91
2018-12-24T20:43:46.389Z,98714.41
2018-12-24T20:46:15.815Z,98720.30
2018-12-24T20:48:45.242Z,98718.92
2018-12-24T20:51:33.979Z,98726.51
2018-12-24T20:54:03.374Z,98719.40
2018-12-24T20:56:32.821Z,98720.89
2018-12-24T20:59:02.310Z,98727.35
2018-12-24T21:01:31.727Z,98720.94
2018-12-24T21:04:01.143Z,98720.63
2018-12-24T21:06:30.595Z,98718.88
2018-12-24T21:11:48.405Z,98723.70
2018-12-24T21:14:17.769Z,98730.89
2018-12-24T21:16:47.223Z,98736.66
2018-12-24T21:19:16.596Z,98742.17
2018-12-24T21:21:45.935Z,98740.74
2018-12-24T21:27:22.834Z,98751.92
2018-12-24T21:30:11.583Z,98751.06
2018-12-24T21:35:57.304Z,98748.84
2018-12-24T21:38:26.729Z,98749.63
2018-12-24T21:43:50.663Z,98748.08
2018-12-24T21:46:20.160Z,98755.22
2018-12-24T21:48:49.596Z,98755.25
2018-12-24T21:54:31.843Z,98761.56
2018-12-24T21:57:01.299Z,98757.17
2018-12-24T21:59:49.795Z,98752.59
2018-12-24T22:02:19.212Z,98749.36
2018-12-24T22:04:48.671Z,98750.61
2018-12-24T22:07:37.215Z,98743.82
2018-12-24T22:10:06.590Z,98762.06
2018-12-24T22:12:35.916Z,98758.55
2018-12-24T22:15:05.436Z,98761.11
2018-12-24T22:17:34.785Z,98761.47
2018-12-24T22:20:04.202Z,98761.88
2018-12-24T22:22:33.544Z,98770.58
2018-12-24T22:25:02.888Z,98766.00
2018-12-24T22:27:32.222Z,98774.25
2018-12-24T22:30:01.550Z,98780.92
2018-12-24T22:32:30.891Z,98792.58
2018-12-24T22:35:00.290Z,98790.16
2018-12-24T22:37:29.573Z,98800.89
2018-12-24T22:39:58.913Z,98804.63
2018-12-24T22:42:28.255Z,98803.51
2018-12-24T22:44:57.608Z,98813.46
2018-12-24T22:47:26.936Z,98811.03
2018-12-24T22:49:56.273Z,98810.38
2018-12-24T22:52:25.605Z,98813.33
2018-12-24T22:54:54.950Z,98813.13
2018-12-24T22:57:24.381Z,98821.24
2018-12-24T22:59:53.708Z,98824.78
2018-12-24T23:02:23.046Z,98822.30
2018-12-24T23:04:52.457Z,98821.24
2018-12-24T23:07:36.413Z,98827.47
2018-12-24T23:09:52.919Z,98832.38
2018-12-24T23:12:22.302Z,98850.19
2018-12-24T23:14:51.687Z,98846.98
2018-12-24T23:20:04.356Z,98864.64
2018-12-24T23:22:33.733Z,98865.48
2018-12-24T23:25:03.118Z,98867.58
2018-12-24T23:27:51.813Z,98866.28
2018-12-24T23:30:21.207Z,98861.10
2018-12-24T23:32:50.601Z,98861.00
2018-12-24T23:35:19.981Z,98866.56
2018-12-24T23:40:57.120Z,98865.91
2018-12-24T23:43:26.498Z,98862.62
2018-12-24T23:45:55.891Z,98864.00
2018-12-24T23:48:25.268Z,98863.02
2018-12-24T23:50:54.665Z,98875.33
2018-12-24T23:53:24.049Z,98877.49
2018-12-24T23:55:53.447Z,98874.94
2018-12-24T23:58:22.828Z,98883.46
